UCA4929 KIAH-KBRO
Flight info
| Callsign | UCA4929 |
|---|---|
| Flight time | 0h 53m |
| Altitude | 32000 |
| Route | RITAA7 WWREN RELAX |
| Aircraft | E45X/M-SDFGIRW/S |
Departure
| Time | 2026-05-04 22:36 |
|---|---|
| Airport | George Bush Intercontinental Airport (KIAH) |
Arrival
| Time | 2026-05-04 23:29 |
|---|---|
| Airport | Brownsville South Padre Island International Airport (KBRO) |
| Time | Latitude | Longitude | Altitude | Speed | Heading |
|---|---|---|---|---|---|
| 2026-05-04 22:16 | 29.98538 | -95.34743 | 95 ft | 0 kts | 47° |
| 2026-05-04 22:27 | 29.98535 | -95.34747 | 95 ft | 2 kts | 47° |
| 2026-05-04 22:27 | 29.98526 | -95.34759 | 95 ft | 2 kts | 66° |
| 2026-05-04 22:27 | 29.98525 | -95.34776 | 95 ft | 2 kts | 121° |
| 2026-05-04 22:27 | 29.98536 | -95.34786 | 95 ft | 2 kts | 172° |
| 2026-05-04 22:28 | 29.98543 | -95.34786 | 95 ft | 0 kts | 182° |
| 2026-05-04 22:30 | 29.98536 | -95.34786 | 95 ft | 3 kts | 181° |
| 2026-05-04 22:31 | 29.98479 | -95.34786 | 95 ft | 10 kts | 180° |
| 2026-05-04 22:31 | 29.98402 | -95.34787 | 95 ft | 10 kts | 184° |
| 2026-05-04 22:31 | 29.98391 | -95.34789 | 95 ft | 10 kts | 185° |
| 2026-05-04 22:32 | 29.98377 | -95.34790 | 95 ft | 10 kts | 184° |
| 2026-05-04 22:32 | 29.98338 | -95.34789 | 95 ft | 6 kts | 175° |
| 2026-05-04 22:32 | 29.98325 | -95.34815 | 95 ft | 5 kts | 271° |
| 2026-05-04 22:32 | 29.98324 | -95.34904 | 95 ft | 16 kts | 267° |
| 2026-05-04 22:33 | 29.98329 | -95.35054 | 95 ft | 20 kts | 267° |
| 2026-05-04 22:33 | 29.98319 | -95.35171 | 95 ft | 10 kts | 251° |
| 2026-05-04 22:33 | 29.98296 | -95.35253 | 95 ft | 11 kts | 289° |
| 2026-05-04 22:33 | 29.98372 | -95.35317 | 95 ft | 16 kts | 332° |
| 2026-05-04 22:34 | 29.98497 | -95.35394 | 95 ft | 23 kts | 332° |
| 2026-05-04 22:34 | 29.98653 | -95.35489 | 95 ft | 26 kts | 332° |
| 2026-05-04 22:34 | 29.98800 | -95.35579 | 95 ft | 15 kts | 332° |
| 2026-05-04 22:34 | 29.98839 | -95.35657 | 95 ft | 13 kts | 251° |
| 2026-05-04 22:35 | 29.98794 | -95.35751 | 95 ft | 9 kts | 236° |
| 2026-05-04 22:35 | 29.98756 | -95.35767 | 95 ft | 0 kts | 153° |
| 2026-05-04 22:35 | 29.98753 | -95.35766 | 95 ft | 0 kts | 153° |
| 2026-05-04 22:35 | 29.98750 | -95.35764 | 95 ft | 1 kts | 153° |
| 2026-05-04 22:36 | 29.98642 | -95.35698 | 95 ft | 53 kts | 151° |
| 2026-05-04 22:36 | 29.98061 | -95.35342 | 95 ft | 131 kts | 153° |
| 2026-05-04 22:36 | 29.97144 | -95.34763 | 435 ft | 161 kts | 152° |
| 2026-05-04 22:36 | 29.96194 | -95.34071 | 1331 ft | 166 kts | 144° |
| 2026-05-04 22:37 | 29.95458 | -95.33055 | 2229 ft | 174 kts | 127° |
| 2026-05-04 22:37 | 29.94751 | -95.31922 | 2957 ft | 188 kts | 133° |
| 2026-05-04 22:37 | 29.93842 | -95.30653 | 3479 ft | 222 kts | 133° |
| 2026-05-04 22:37 | 29.92793 | -95.29220 | 4016 ft | 246 kts | 133° |
| 2026-05-04 22:38 | 29.91650 | -95.27673 | 4710 ft | 261 kts | 133° |
| 2026-05-04 22:38 | 29.90459 | -95.26067 | 5597 ft | 268 kts | 134° |
| 2026-05-04 22:38 | 29.89250 | -95.24440 | 6445 ft | 274 kts | 134° |
| 2026-05-04 22:38 | 29.88077 | -95.22666 | 7305 ft | 281 kts | 127° |
| 2026-05-04 22:39 | 29.86937 | -95.20828 | 8129 ft | 287 kts | 127° |
| 2026-05-04 22:39 | 29.85772 | -95.18955 | 8921 ft | 293 kts | 127° |
| 2026-05-04 22:39 | 29.84566 | -95.17020 | 9726 ft | 299 kts | 126° |
| 2026-05-04 22:39 | 29.83344 | -95.15059 | 10445 ft | 307 kts | 126° |
| 2026-05-04 22:40 | 29.81971 | -95.13150 | 11047 ft | 317 kts | 140° |
| 2026-05-04 22:40 | 29.80182 | -95.11575 | 11583 ft | 330 kts | 144° |
| 2026-05-04 22:40 | 29.78300 | -95.09942 | 12129 ft | 342 kts | 148° |
| 2026-05-04 22:40 | 29.76107 | -95.08894 | 12603 ft | 348 kts | 173° |
| 2026-05-04 22:41 | 29.73692 | -95.08945 | 13123 ft | 349 kts | 197° |
| 2026-05-04 22:41 | 29.71514 | -95.10065 | 13647 ft | 346 kts | 221° |
| 2026-05-04 22:41 | 29.69813 | -95.12016 | 14174 ft | 349 kts | 231° |
| 2026-05-04 22:41 | 29.67918 | -95.13869 | 14786 ft | 358 kts | 225° |
| 2026-05-04 22:42 | 29.65987 | -95.15695 | 15411 ft | 362 kts | 226° |
| 2026-05-04 22:42 | 29.64201 | -95.17660 | 16062 ft | 362 kts | 230° |
| 2026-05-04 22:42 | 29.62361 | -95.19682 | 16649 ft | 366 kts | 230° |
| 2026-05-04 22:42 | 29.60508 | -95.21714 | 17310 ft | 367 kts | 230° |
| 2026-05-04 22:43 | 29.58507 | -95.23550 | 17931 ft | 379 kts | 216° |
| 2026-05-04 22:43 | 29.56095 | -95.24919 | 18623 ft | 382 kts | 213° |
| 2026-05-04 22:43 | 29.53718 | -95.26259 | 19295 ft | 381 kts | 214° |
| 2026-05-04 22:43 | 29.51348 | -95.27592 | 19996 ft | 380 kts | 214° |
| 2026-05-04 22:44 | 29.48970 | -95.28926 | 20692 ft | 379 kts | 215° |
| 2026-05-04 22:44 | 29.46610 | -95.30248 | 21437 ft | 375 kts | 216° |
| 2026-05-04 22:44 | 29.44247 | -95.31575 | 22080 ft | 375 kts | 216° |
| 2026-05-04 22:44 | 29.41903 | -95.32889 | 22766 ft | 373 kts | 217° |
| 2026-05-04 22:45 | 29.39584 | -95.34190 | 23381 ft | 373 kts | 217° |
| 2026-05-04 22:45 | 29.34948 | -95.36786 | 24718 ft | 368 kts | 218° |
| 2026-05-04 22:45 | 29.32657 | -95.38069 | 25303 ft | 368 kts | 218° |
| 2026-05-04 22:46 | 29.30372 | -95.39348 | 25893 ft | 368 kts | 218° |
| 2026-05-04 22:46 | 29.28079 | -95.40630 | 26500 ft | 366 kts | 218° |
| 2026-05-04 22:46 | 29.25766 | -95.41923 | 27067 ft | 366 kts | 218° |
| 2026-05-04 22:46 | 29.23498 | -95.43188 | 27711 ft | 362 kts | 219° |
| 2026-05-04 22:47 | 29.21249 | -95.44446 | 28221 ft | 363 kts | 219° |
| 2026-05-04 22:47 | 29.18975 | -95.45714 | 28851 ft | 360 kts | 219° |
| 2026-05-04 22:47 | 29.16737 | -95.46963 | 29316 ft | 362 kts | 220° |
| 2026-05-04 22:47 | 29.14489 | -95.48218 | 29822 ft | 362 kts | 219° |
| 2026-05-04 22:48 | 29.12243 | -95.49468 | 30410 ft | 360 kts | 219° |
| 2026-05-04 22:48 | 29.09982 | -95.50727 | 30997 ft | 357 kts | 220° |
| 2026-05-04 22:48 | 29.07772 | -95.51956 | 31603 ft | 354 kts | 220° |
| 2026-05-04 22:48 | 29.05568 | -95.53187 | 31920 ft | 359 kts | 220° |
| 2026-05-04 22:49 | 29.03252 | -95.54479 | 31943 ft | 374 kts | 219° |
| 2026-05-04 22:49 | 29.00870 | -95.55804 | 31935 ft | 388 kts | 219° |
| 2026-05-04 22:49 | 28.98428 | -95.57162 | 31943 ft | 401 kts | 218° |
| 2026-05-04 22:49 | 28.95871 | -95.58581 | 31935 ft | 414 kts | 218° |
| 2026-05-04 22:50 | 28.93249 | -95.60035 | 31933 ft | 426 kts | 217° |
| 2026-05-04 22:50 | 28.90546 | -95.61533 | 31930 ft | 438 kts | 217° |
| 2026-05-04 22:50 | 28.85102 | -95.64932 | 31914 ft | 454 kts | 220° |
| 2026-05-04 22:51 | 28.79487 | -95.68469 | 31932 ft | 473 kts | 219° |
| 2026-05-04 22:51 | 28.73624 | -95.72150 | 31934 ft | 487 kts | 218° |
| 2026-05-04 22:52 | 28.67656 | -95.75892 | 31931 ft | 492 kts | 218° |
| 2026-05-04 22:52 | 28.61647 | -95.79657 | 31929 ft | 494 kts | 218° |
| 2026-05-04 22:53 | 28.55600 | -95.83441 | 31929 ft | 495 kts | 218° |
| 2026-05-04 22:53 | 28.49565 | -95.87212 | 31928 ft | 495 kts | 218° |
| 2026-05-04 22:54 | 28.43662 | -95.90894 | 31925 ft | 478 kts | 218° |
| 2026-05-04 22:54 | 28.37942 | -95.94456 | 31922 ft | 452 kts | 219° |
| 2026-05-04 22:55 | 28.35242 | -95.96138 | 31920 ft | 439 kts | 219° |
| 2026-05-04 22:55 | 28.32595 | -95.97784 | 31919 ft | 427 kts | 219° |
| 2026-05-04 22:55 | 28.30030 | -95.99381 | 31917 ft | 416 kts | 219° |
| 2026-05-04 22:55 | 28.27513 | -96.00946 | 31917 ft | 406 kts | 220° |
| 2026-05-04 22:56 | 28.22654 | -96.03964 | 31911 ft | 389 kts | 220° |
| 2026-05-04 22:56 | 28.18014 | -96.06844 | 31914 ft | 374 kts | 220° |
| 2026-05-04 22:57 | 28.13502 | -96.09641 | 31914 ft | 362 kts | 221° |
| 2026-05-04 22:57 | 28.11309 | -96.10998 | 31913 ft | 351 kts | 225° |
| 2026-05-04 22:57 | 28.09298 | -96.12500 | 31921 ft | 344 kts | 225° |
| 2026-05-04 22:58 | 28.05267 | -96.15379 | 31924 ft | 340 kts | 224° |
| 2026-05-04 22:58 | 28.01256 | -96.18197 | 31921 ft | 341 kts | 224° |
| 2026-05-04 22:59 | 27.97202 | -96.21035 | 31921 ft | 344 kts | 224° |
| 2026-05-04 22:59 | 27.93107 | -96.23896 | 31925 ft | 347 kts | 224° |
| 2026-05-04 23:00 | 27.88969 | -96.26786 | 31913 ft | 351 kts | 224° |
| 2026-05-04 23:00 | 27.84812 | -96.29685 | 31908 ft | 353 kts | 224° |
| 2026-05-04 23:01 | 27.80609 | -96.32614 | 31908 ft | 354 kts | 224° |
| 2026-05-04 23:01 | 27.76417 | -96.35534 | 31906 ft | 356 kts | 223° |
| 2026-05-04 23:02 | 27.72168 | -96.38490 | 31906 ft | 358 kts | 224° |
| 2026-05-04 23:02 | 27.67926 | -96.41438 | 31893 ft | 359 kts | 223° |
| 2026-05-04 23:03 | 27.63657 | -96.44402 | 31892 ft | 361 kts | 223° |
| 2026-05-04 23:03 | 27.59392 | -96.47360 | 31892 ft | 362 kts | 223° |
| 2026-05-04 23:04 | 27.55083 | -96.50347 | 31895 ft | 363 kts | 223° |
| 2026-05-04 23:04 | 27.50762 | -96.53339 | 31896 ft | 364 kts | 223° |
| 2026-05-04 23:05 | 27.46421 | -96.56342 | 31887 ft | 365 kts | 223° |
| 2026-05-04 23:05 | 27.44232 | -96.57861 | 31404 ft | 380 kts | 222° |
| 2026-05-04 23:05 | 27.41945 | -96.59441 | 30898 ft | 393 kts | 221° |
| 2026-05-04 23:06 | 27.39577 | -96.61075 | 30376 ft | 397 kts | 221° |
| 2026-05-04 23:06 | 27.37219 | -96.62700 | 29853 ft | 397 kts | 221° |
| 2026-05-04 23:06 | 27.34843 | -96.64339 | 29325 ft | 397 kts | 220° |
| 2026-05-04 23:06 | 27.32491 | -96.65961 | 28818 ft | 397 kts | 220° |
| 2026-05-04 23:07 | 27.30129 | -96.67589 | 28331 ft | 396 kts | 219° |
| 2026-05-04 23:07 | 27.27762 | -96.69219 | 27842 ft | 396 kts | 219° |
| 2026-05-04 23:07 | 27.25416 | -96.70834 | 27361 ft | 395 kts | 219° |
| 2026-05-04 23:07 | 27.23067 | -96.72450 | 26874 ft | 394 kts | 219° |
| 2026-05-04 23:08 | 27.20728 | -96.74058 | 26391 ft | 393 kts | 219° |
| 2026-05-04 23:08 | 27.18411 | -96.75652 | 25908 ft | 392 kts | 219° |
| 2026-05-04 23:08 | 27.16101 | -96.77238 | 25433 ft | 391 kts | 219° |
| 2026-05-04 23:08 | 27.13761 | -96.78847 | 24940 ft | 390 kts | 219° |
| 2026-05-04 23:09 | 27.11453 | -96.80431 | 24458 ft | 389 kts | 219° |
| 2026-05-04 23:09 | 27.09156 | -96.82007 | 23978 ft | 386 kts | 219° |
| 2026-05-04 23:09 | 27.06890 | -96.83560 | 23502 ft | 381 kts | 219° |
| 2026-05-04 23:09 | 27.04652 | -96.85094 | 23026 ft | 377 kts | 219° |
| 2026-05-04 23:10 | 27.02421 | -96.86623 | 22551 ft | 372 kts | 219° |
| 2026-05-04 23:10 | 27.00234 | -96.88120 | 22072 ft | 365 kts | 219° |
| 2026-05-04 23:10 | 26.98090 | -96.89588 | 21588 ft | 359 kts | 219° |
| 2026-05-04 23:10 | 26.95980 | -96.91031 | 21114 ft | 353 kts | 219° |
| 2026-05-04 23:11 | 26.93895 | -96.92458 | 20633 ft | 348 kts | 219° |
| 2026-05-04 23:11 | 26.91866 | -96.93845 | 20162 ft | 344 kts | 219° |
| 2026-05-04 23:11 | 26.89819 | -96.95244 | 19684 ft | 339 kts | 219° |
| 2026-05-04 23:11 | 26.87818 | -96.96611 | 19200 ft | 336 kts | 219° |
| 2026-05-04 23:12 | 26.85850 | -96.97955 | 18723 ft | 333 kts | 219° |
| 2026-05-04 23:12 | 26.83868 | -96.99308 | 18238 ft | 330 kts | 219° |
| 2026-05-04 23:12 | 26.81929 | -97.00630 | 17757 ft | 327 kts | 219° |
| 2026-05-04 23:12 | 26.80007 | -97.01941 | 17280 ft | 324 kts | 219° |
| 2026-05-04 23:13 | 26.78076 | -97.03258 | 16810 ft | 322 kts | 218° |
| 2026-05-04 23:13 | 26.76183 | -97.04547 | 16343 ft | 319 kts | 218° |
| 2026-05-04 23:13 | 26.74294 | -97.05834 | 15869 ft | 315 kts | 218° |
| 2026-05-04 23:13 | 26.72439 | -97.07097 | 15399 ft | 312 kts | 218° |
| 2026-05-04 23:14 | 26.70586 | -97.08359 | 14926 ft | 310 kts | 218° |
| 2026-05-04 23:14 | 26.68742 | -97.09613 | 14448 ft | 307 kts | 218° |
| 2026-05-04 23:14 | 26.66927 | -97.10847 | 13979 ft | 305 kts | 218° |
| 2026-05-04 23:14 | 26.65108 | -97.12084 | 13504 ft | 303 kts | 218° |
| 2026-05-04 23:15 | 26.63317 | -97.13302 | 13016 ft | 302 kts | 217° |
| 2026-05-04 23:15 | 26.61503 | -97.14535 | 12398 ft | 306 kts | 216° |
| 2026-05-04 23:15 | 26.59679 | -97.15774 | 11724 ft | 310 kts | 216° |
| 2026-05-04 23:15 | 26.57826 | -97.17032 | 11061 ft | 313 kts | 215° |
| 2026-05-04 23:16 | 26.55965 | -97.18295 | 10488 ft | 312 kts | 214° |
| 2026-05-04 23:16 | 26.54122 | -97.19544 | 9989 ft | 309 kts | 214° |
| 2026-05-04 23:16 | 26.52278 | -97.20794 | 9556 ft | 303 kts | 214° |
| 2026-05-04 23:16 | 26.50510 | -97.21991 | 9293 ft | 293 kts | 213° |
| 2026-05-04 23:17 | 26.48784 | -97.23160 | 9019 ft | 285 kts | 214° |
| 2026-05-04 23:17 | 26.47118 | -97.24288 | 8743 ft | 277 kts | 214° |
| 2026-05-04 23:17 | 26.45482 | -97.25396 | 8484 ft | 270 kts | 213° |
| 2026-05-04 23:17 | 26.43888 | -97.26475 | 8335 ft | 266 kts | 213° |
| 2026-05-04 23:18 | 26.42298 | -97.27551 | 8187 ft | 267 kts | 213° |
| 2026-05-04 23:18 | 26.40714 | -97.28623 | 8058 ft | 268 kts | 213° |
| 2026-05-04 23:18 | 26.39122 | -97.29700 | 7897 ft | 267 kts | 213° |
| 2026-05-04 23:18 | 26.37513 | -97.30788 | 7590 ft | 268 kts | 213° |
| 2026-05-04 23:19 | 26.35912 | -97.31873 | 7270 ft | 269 kts | 212° |
| 2026-05-04 23:19 | 26.34313 | -97.32952 | 7011 ft | 269 kts | 212° |
| 2026-05-04 23:19 | 26.32698 | -97.34044 | 6721 ft | 269 kts | 212° |
| 2026-05-04 23:19 | 26.31088 | -97.35130 | 6417 ft | 268 kts | 212° |
| 2026-05-04 23:20 | 26.29509 | -97.36196 | 6143 ft | 262 kts | 212° |
| 2026-05-04 23:20 | 26.27958 | -97.37242 | 5922 ft | 255 kts | 211° |
| 2026-05-04 23:20 | 26.26458 | -97.38254 | 5700 ft | 250 kts | 211° |
| 2026-05-04 23:20 | 26.25921 | -97.38627 | 5620 ft | 248 kts | 214° |
| 2026-05-04 23:21 | 26.24573 | -97.39839 | 5403 ft | 245 kts | 219° |
| 2026-05-04 23:21 | 26.23281 | -97.41039 | 5185 ft | 242 kts | 218° |
| 2026-05-04 23:21 | 26.22003 | -97.42226 | 4964 ft | 239 kts | 218° |
| 2026-05-04 23:21 | 26.20709 | -97.43426 | 4748 ft | 242 kts | 218° |
| 2026-05-04 23:22 | 26.19401 | -97.44638 | 4534 ft | 246 kts | 218° |
| 2026-05-04 23:22 | 26.18063 | -97.45878 | 4321 ft | 250 kts | 218° |
| 2026-05-04 23:22 | 26.16729 | -97.47115 | 4114 ft | 252 kts | 218° |
| 2026-05-04 23:22 | 26.15382 | -97.48362 | 3991 ft | 250 kts | 218° |
| 2026-05-04 23:23 | 26.14056 | -97.49590 | 3870 ft | 248 kts | 217° |
| 2026-05-04 23:23 | 26.12719 | -97.50827 | 3746 ft | 246 kts | 217° |
| 2026-05-04 23:23 | 26.11421 | -97.52038 | 3624 ft | 245 kts | 220° |
| 2026-05-04 23:23 | 26.10212 | -97.53373 | 3499 ft | 241 kts | 222° |
| 2026-05-04 23:24 | 26.09050 | -97.54676 | 3370 ft | 233 kts | 222° |
| 2026-05-04 23:24 | 26.07925 | -97.55938 | 3241 ft | 226 kts | 221° |
| 2026-05-04 23:24 | 26.06783 | -97.57114 | 3061 ft | 218 kts | 208° |
| 2026-05-04 23:24 | 26.05382 | -97.57494 | 2915 ft | 204 kts | 169° |
| 2026-05-04 23:25 | 26.04109 | -97.56884 | 2778 ft | 196 kts | 142° |
| 2026-05-04 23:25 | 26.03091 | -97.55937 | 2702 ft | 189 kts | 139° |
| 2026-05-04 23:25 | 26.02135 | -97.54955 | 2639 ft | 181 kts | 137° |
| 2026-05-04 23:25 | 26.01238 | -97.53996 | 2546 ft | 176 kts | 137° |
| 2026-05-04 23:26 | 26.00339 | -97.53022 | 2371 ft | 176 kts | 136° |
| 2026-05-04 23:26 | 25.99492 | -97.52099 | 2200 ft | 172 kts | 136° |
| 2026-05-04 23:26 | 25.98644 | -97.51173 | 1981 ft | 170 kts | 136° |
| 2026-05-04 23:26 | 25.97816 | -97.50233 | 1756 ft | 164 kts | 133° |
| 2026-05-04 23:27 | 25.97059 | -97.49389 | 1574 ft | 141 kts | 135° |
| 2026-05-04 23:27 | 25.96407 | -97.48679 | 1375 ft | 122 kts | 135° |
| 2026-05-04 23:27 | 25.95824 | -97.48046 | 1231 ft | 125 kts | 136° |
| 2026-05-04 23:27 | 25.95183 | -97.47350 | 1070 ft | 124 kts | 136° |
| 2026-05-04 23:28 | 25.94596 | -97.46713 | 907 ft | 114 kts | 136° |
| 2026-05-04 23:28 | 25.94009 | -97.46077 | 765 ft | 120 kts | 136° |
| 2026-05-04 23:28 | 25.93415 | -97.45432 | 612 ft | 120 kts | 135° |
| 2026-05-04 23:28 | 25.92827 | -97.44789 | 460 ft | 118 kts | 136° |
| 2026-05-04 23:29 | 25.92227 | -97.44147 | 320 ft | 121 kts | 136° |
| 2026-05-04 23:29 | 25.91624 | -97.43499 | 135 ft | 120 kts | 136° |
| 2026-05-04 23:29 | 25.91043 | -97.42870 | 23 ft | 107 kts | 135° |
| 2026-05-04 23:29 | 25.90639 | -97.42433 | 19 ft | 34 kts | 136° |
| 2026-05-04 23:30 | 25.90510 | -97.42294 | 19 ft | 20 kts | 143° |
| 2026-05-04 23:30 | 25.90441 | -97.42279 | 19 ft | 10 kts | 216° |
| 2026-05-04 23:30 | 25.90411 | -97.42383 | 19 ft | 17 kts | 273° |
| 2026-05-04 23:30 | 25.90414 | -97.42526 | 19 ft | 19 kts | 271° |
| 2026-05-04 23:31 | 25.90420 | -97.42687 | 19 ft | 22 kts | 274° |
| 2026-05-04 23:31 | 25.90425 | -97.42828 | 19 ft | 14 kts | 271° |
| 2026-05-04 23:31 | 25.90428 | -97.42950 | 19 ft | 17 kts | 272° |
| 2026-05-04 23:31 | 25.90436 | -97.43037 | 19 ft | 7 kts | 295° |
| 2026-05-04 23:32 | 25.90498 | -97.43069 | 19 ft | 14 kts | 1° |
| 2026-05-04 23:32 | 25.90611 | -97.43063 | 19 ft | 14 kts | 2° |
| 2026-05-04 23:32 | 25.90665 | -97.43073 | 19 ft | 5 kts | 297° |
| 2026-05-04 23:32 | 25.90668 | -97.43112 | 19 ft | 1 kts | 273° |
| 2026-05-04 23:33 | 25.90668 | -97.43116 | 19 ft | 0 kts | 272° |